1881 NOT_NAMED (1881021S14057)


IBTrACS version v04r00. Visit IBTrACS website for data access.
Please direct all questions to the IBTrACS Q and A forum

Storm track - Intensity - Wind Radii - Intensity Data - Source Data - All data

Summary Information

Storm ID 1881021S14057
Start Jan 21 06Z
End Jan 29 06Z
ATCF IDs
Track status Best track data.

Storm track plot

Map of storm track

Intensity plots

No Intensity information for this storm


Radial wind information

No radial wind information for this storm


Position and Intensity Table

BASIN ISO_TIME_________ NATURE LAT LON
degrees north degrees east
SI 1881-01-21 06:00:00 NR -14.15 57.25
SI 09:00:00 NR -14.27 57.20
SI 12:00:00 NR -14.38 57.15
SI 15:00:00 NR -14.50 57.09
SI 18:00:00 NR -14.61 57.03
SI 21:00:00 NR -14.72 56.97
SI 1881-01-22 00:00:00 NR -14.84 56.90
SI 03:00:00 NR -14.97 56.82
SI 06:00:00 NR -15.10 56.75
SI 09:00:00 NR -15.25 56.67
SI 12:00:00 NR -15.41 56.59
SI 15:00:00 NR -15.58 56.52
SI 18:00:00 NR -15.74 56.45
SI 21:00:00 NR -15.89 56.39
SI 1881-01-23 00:00:00 NR -16.05 56.34
SI 03:00:00 NR -16.20 56.30
SI 06:00:00 NR -16.35 56.25
SI 09:00:00 NR -16.50 56.20
SI 12:00:00 NR -16.65 56.15
SI 15:00:00 NR -16.80 56.10
SI 18:00:00 NR -16.95 56.05
SI 21:00:00 NR -17.10 56.00
SI 1881-01-24 00:00:00 NR -17.26 55.96
SI 03:00:00 NR -17.42 55.91
SI 06:00:00 NR -17.60 55.85
SI 09:00:00 NR -17.78 55.78
SI 12:00:00 NR -17.98 55.70
SI 15:00:00 NR -18.19 55.61
SI 18:00:00 NR -18.41 55.53
SI 21:00:00 NR -18.63 55.46
SI 1881-01-25 00:00:00 NR -18.87 55.38
SI 03:00:00 NR -19.13 55.31
SI 06:00:00 NR -19.40 55.25
SI 09:00:00 NR -19.68 55.19
SI 12:00:00 NR -19.98 55.13
SI 15:00:00 NR -20.30 55.08
SI 18:00:00 NR -20.63 55.04
SI 21:00:00 NR -20.98 54.99
SI 1881-01-26 00:00:00 NR -21.34 54.94
SI 03:00:00 NR -21.71 54.91
SI 06:00:00 NR -22.10 54.90
SI 09:00:00 NR -22.48 54.89
SI 12:00:00 NR -22.88 54.90
SI 15:00:00 NR -23.28 54.93
SI 18:00:00 NR -23.69 54.97
SI 21:00:00 NR -24.10 55.03
SI 1881-01-27 00:00:00 NR -24.28 55.04
SI 03:00:00 NR -24.38 55.02
SI 06:00:00 NR -24.36 54.94
SI 09:00:00 NR -24.16 54.77
SI 12:00:00 NR -24.63 54.86
SI 15:00:00 NR -25.11 54.97
SI 18:00:00 NR -25.57 55.09
SI 21:00:00 NR -26.02 55.22
SI 1881-01-28 00:00:00 NR -26.42 55.35
SI 03:00:00 NR -26.79 55.48
SI 06:00:00 NR -27.10 55.60
SI 09:00:00 NR -27.35 55.71
SI 12:00:00 NR -27.53 55.80
SI 15:00:00 NR -27.67 55.88
SI 18:00:00 NR -27.77 55.96
SI 21:00:00 NR -27.83 56.03
SI 1881-01-29 00:00:00 NR -27.87 56.09
SI 03:00:00 NR -27.89 56.14
SI 06:00:00 NR -27.90 56.20

Source Information

Agency Information
USA
TOKYO
CMA
HKO
NEWDELHI
REUNION WMO-Best-Tracks.txt:Line=1236:xxxx881181
BOM
NADI
WELLINGTON
DS824
TD9636 cons_worldwide_trop_cyclone_18710101-19891231-005:Line=1647
TD9635
NEUMANN
MLC

All available IBTrACS Data

SEASON BASIN SUBBASIN ISO_TIME_________ NATURE LAT LON WMO AGENCY DIST2LAND LANDFALL IFLAG USA SSHS REUNION LAT REUNION LON REUNION TYPE REUNION TNUM TD9636 LAT TD9636 LON TD9636 STAGE STORM SPEED STORM DIR
Year degrees north degrees east km km 1 degrees north degrees east 1 degrees north degrees east kts degrees
1881 SI MM 1881-01-21 06:00:00 NR -14.15 57.25 reunion 671 649 _____O____O___ -1 -13.70 57.40 99 9.90 -14.60 57.10 7 3 208
1881 SI MM 09:00:00 NR -14.27 57.20 649 638 _____P____P___ -1 -13.80 57.34 99 -14.73 57.06 7 3 203
1881 SI MM 12:00:00 NR -14.38 57.15 639 628 _____P____P___ -1 -13.91 57.28 99 -14.85 57.01 7 3 205
1881 SI MM 15:00:00 NR -14.50 57.09 628 616 _____P____P___ -1 -14.01 57.23 99 -14.98 56.96 7 3 207
1881 SI MM 18:00:00 NR -14.61 57.03 617 606 _____P____O___ -1 -14.12 57.17 99 -15.10 56.90 7 3 207
1881 SI MM 21:00:00 NR -14.72 56.97 606 595 _____P____P___ -1 -14.23 57.10 99 -15.22 56.83 7 3 209
1881 SI MM 1881-01-22 00:00:00 NR -14.84 56.90 596 575 _____P____P___ -1 -14.35 57.04 99 -15.34 56.76 7 3 209
1881 SI MM 03:00:00 NR -14.97 56.82 575 564 _____P____P___ -1 -14.47 56.97 99 -15.46 56.68 7 3 209
1881 SI MM 06:00:00 NR -15.10 56.75 reunion 564 554 _____O____O___ -1 -14.60 56.90 99 9.90 -15.60 56.60 7 3 208
1881 SI MM 09:00:00 NR -15.25 56.67 543 534 _____P____P___ -1 -14.74 56.83 99 -15.76 56.52 7 3 207
1881 SI MM 12:00:00 NR -15.41 56.59 534 514 _____P____P___ -1 -14.88 56.75 99 -15.94 56.44 7 4 204
1881 SI MM 15:00:00 NR -15.58 56.52 514 503 _____P____P___ -1 -15.03 56.67 99 -16.12 56.36 7 4 204
1881 SI MM 18:00:00 NR -15.74 56.45 505 484 _____P____O___ -1 -15.18 56.59 99 -16.30 56.30 7 3 200
1881 SI MM 21:00:00 NR -15.89 56.39 484 473 _____P____P___ -1 -15.33 56.52 99 -16.46 56.26 7 3 199
1881 SI MM 1881-01-23 00:00:00 NR -16.05 56.34 475 454 _____P____P___ -1 -15.49 56.44 99 -16.61 56.24 7 3 196
1881 SI MM 03:00:00 NR -16.20 56.30 454 443 _____P____P___ -1 -15.64 56.37 99 -16.75 56.22 7 3 196
1881 SI MM 06:00:00 NR -16.35 56.25 reunion 443 425 _____O____O___ -1 -15.80 56.30 99 9.90 -16.90 56.20 7 3 196
1881 SI MM 09:00:00 NR -16.50 56.20 425 414 _____P____P___ -1 -15.95 56.24 99 -17.05 56.16 7 3 198
1881 SI MM 12:00:00 NR -16.65 56.15 418 397 _____P____P___ -1 -16.10 56.19 99 -17.19 56.11 7 3 198
1881 SI MM 15:00:00 NR -16.80 56.10 397 387 _____P____P___ -1 -16.25 56.14 99 -17.34 56.05 7 3 198
1881 SI MM 18:00:00 NR -16.95 56.05 391 370 _____P____O___ -1 -16.40 56.09 99 -17.50 56.00 7 3 196
1881 SI MM 21:00:00 NR -17.10 56.00 370 360 _____P____P___ -1 -16.55 56.05 99 -17.65 55.96 7 3 196
1881 SI MM 1881-01-24 00:00:00 NR -17.26 55.96 350 345 _____P____P___ -1 -16.70 56.00 99 -17.81 55.91 7 3 196
1881 SI MM 03:00:00 NR -17.42 55.91 345 326 _____P____P___ -1 -16.85 55.95 99 -17.99 55.86 7 4 197
1881 SI MM 06:00:00 NR -17.60 55.85 reunion 326 313 _____O____O___ -1 -17.00 55.90 99 9.90 -18.20 55.80 7 4 200
1881 SI MM 09:00:00 NR -17.78 55.78 313 301 _____P____P___ -1 -17.13 55.84 99 -18.44 55.71 7 4 201
1881 SI MM 12:00:00 NR -17.98 55.70 301 291 _____P____P___ -1 -17.25 55.79 99 -18.71 55.61 7 4 201
1881 SI MM 15:00:00 NR -18.19 55.61 291 283 _____P____P___ -1 -17.38 55.73 99 -18.99 55.50 7 5 200
1881 SI MM 18:00:00 NR -18.41 55.53 283 268 _____P____O___ -1 -17.51 55.66 99 -19.30 55.40 7 5 198
1881 SI MM 21:00:00 NR -18.63 55.46 268 234 _____P____P___ -1 -17.65 55.60 99 -19.61 55.31 7 5 197
1881 SI MM 1881-01-25 00:00:00 NR -18.87 55.38 234 212 _____P____P___ -1 -17.81 55.54 99 -19.93 55.23 7 5 196
1881 SI MM 03:00:00 NR -19.13 55.31 212 178 _____P____P___ -1 -17.99 55.47 99 -20.26 55.16 7 5 193
1881 SI MM 06:00:00 NR -19.40 55.25 reunion 178 145 _____O____O___ -1 -18.20 55.40 99 9.90 -20.60 55.10 7 6 192
1881 SI MM 09:00:00 NR -19.68 55.19 145 113 _____P____P___ -1 -18.43 55.32 99 -20.93 55.06 7 6 191
1881 SI MM 12:00:00 NR -19.98 55.13 113 81 _____P____P___ -1 -18.69 55.24 99 -21.28 55.03 7 6 189
1881 SI MM 15:00:00 NR -20.30 55.08 81 54 _____P____P___ -1 -18.96 55.15 99 -21.63 55.01 7 7 188
1881 SI MM 18:00:00 NR -20.63 55.04 54 23 _____P____O___ -1 -19.26 55.07 99 -22.00 55.00 7 7 187
1881 SI MM 21:00:00 NR -20.98 54.99 23 20 _____P____P___ -1 -19.57 54.99 99 -22.38 54.98 7 7 187
1881 SI MM 1881-01-26 00:00:00 NR -21.34 54.94 38 38 _____P____P___ -1 -19.90 54.92 99 -22.78 54.97 7 7 185
1881 SI MM 03:00:00 NR -21.71 54.91 60 60 _____P____P___ -1 -20.24 54.85 99 -23.18 54.97 7 8 183
1881 SI MM 06:00:00 NR -22.10 54.90 reunion 98 98 _____O____O___ -1 -20.60 54.80 99 9.90 -23.60 55.00 7 8 182
1881 SI MM 09:00:00 NR -22.48 54.89 140 140 _____P____P___ -1 -20.95 54.75 99 -24.02 55.04 7 8 0
1881 SI MM 12:00:00 NR -22.88 54.90 182 182 _____P____P___ -1 -21.31 54.70 99 -24.44 55.11 7 8 177
1881 SI MM 15:00:00 NR -23.28 54.93 224 224 _____P____P___ -1 -21.69 54.66 99 -24.87 55.19 7 8 176
1881 SI MM 18:00:00 NR -23.69 54.97 264 264 _____P____O___ -1 -22.07 54.64 99 -25.30 55.30 7 8 173
1881 SI MM 21:00:00 NR -24.10 55.03 308 308 _____P____P___ -1 -22.47 54.63 99 -25.73 55.43 7 6 175
1881 SI MM 1881-01-27 00:00:00 NR -24.28 55.04 329 329 _____P____P___ -1 -22.87 54.63 99 -26.15 55.58 7 3 0
1881 SI MM 03:00:00 NR -24.38 55.02 340 340 _____P____P___ -1 -23.29 54.66 99 -26.58 55.73 7 1 227
1881 SI MM 06:00:00 NR -24.36 54.94 reunion 342 321 _____O____O___ -1 -23.70 54.70 99 9.90 -27.00 55.90 7 3 315
1881 SI MM 09:00:00 NR -24.16 54.77 323 323 _____P________ -1 -24.16 54.77 99 7 3 194
1881 SI MM 12:00:00 NR -24.63 54.86 364 364 _____P________ -1 -24.63 54.86 99 7 10 169
1881 SI MM 15:00:00 NR -25.11 54.97 418 418 _____P________ -1 -25.11 54.97 99 7 10 167
1881 SI MM 18:00:00 NR -25.57 55.09 472 472 _____P________ -1 -25.57 55.09 99 9 166
1881 SI MM 21:00:00 NR -26.02 55.22 515 515 _____P________ -1 -26.02 55.22 99 9 165
1881 SI MM 1881-01-28 00:00:00 NR -26.42 55.35 559 559 _____P________ -1 -26.42 55.35 99 8 163
1881 SI MM 03:00:00 NR -26.79 55.48 603 603 _____P________ -1 -26.79 55.48 99 7 162
1881 SI MM 06:00:00 NR -27.10 55.60 reunion 636 636 _____O________ -1 -27.10 55.60 99 9.90 6 160
1881 SI MM 09:00:00 NR -27.35 55.71 659 659 _____P________ -1 -27.35 55.71 99 5 158
1881 SI MM 12:00:00 NR -27.53 55.80 681 681 _____P________ -1 -27.53 55.80 99 4 154
1881 SI MM 15:00:00 NR -27.67 55.88 704 704 _____P________ -1 -27.67 55.88 99 3 149
1881 SI MM 18:00:00 NR -27.77 55.96 716 716 _____P________ -1 -27.77 55.96 99 2 142
1881 SI MM 21:00:00 NR -27.83 56.03 716 716 _____P________ -1 -27.83 56.03 99 2 132
1881 SI MM 1881-01-29 00:00:00 NR -27.87 56.09 728 728 _____P________ -1 -27.87 56.09 99 1 119
1881 SI MM 03:00:00 NR -27.89 56.14 728 728 _____P________ -1 -27.89 56.14 99 1 108
1881 SI MM 06:00:00 NR -27.90 56.20 reunion 728 _____O________ -1 -27.90 56.20 99 9.90 1 103